Time;durP1;ratioP1;P1;durP2;ratioP2;P2;SDS_P1;SDS_P2;PMS_P1;PMS_P2;Temp;Humidity;BMP_temperature;BMP_pressure;BME280_temperature;BME280_humidity;BME280_pressure;Samples;Min_cycle;Max_cycle;Signal;HPM_P1;HPM_P2
2022/07/07 00:00:21;;;;;;;27.50;4.65;;;;;;;;;;4958271;28;20046;-58
2022/07/07 00:02:48;;;;;;;42.95;6.70;;;;;;;;;;4955049;28;20113;-62
2022/07/07 00:05:15;;;;;;;23.88;5.47;;;;;;;;;;4952817;29;20477;-60
2022/07/07 00:07:42;;;;;;;27.42;6.20;;;;;;;;;;4953868;29;20106;-61
2022/07/07 00:10:10;;;;;;;23.67;5.10;;;;;;;;;;4952129;29;20031;-61
2022/07/07 00:12:37;;;;;;;25.90;6.07;;;;;;;;;;4953373;29;20462;-55
2022/07/07 00:15:05;;;;;;;32.83;6.45;;;;;;;;;;4953434;29;20032;-58
2022/07/07 00:17:33;;;;;;;32.28;6.28;;;;;;;;;;4951842;29;20039;-62
2022/07/07 00:20:00;;;;;;;32.22;6.07;;;;;;;;;;4952743;29;20544;-63
2022/07/07 00:22:27;;;;;;;21.55;5.82;;;;;;;;;;4949219;29;20020;-60
2022/07/07 00:24:54;;;;;;;30.00;5.85;;;;;;;;;;4954266;29;20789;-60
2022/07/07 00:27:21;;;;;;;31.90;6.78;;;;;;;;;;4952727;29;20029;-59
2022/07/07 00:29:48;;;;;;;36.10;5.65;;;;;;;;;;4936320;29;20031;-59
2022/07/07 00:32:15;;;;;;;32.72;5.82;;;;;;;;;;4953258;29;20023;-64
2022/07/07 00:34:42;;;;;;;33.28;6.28;;;;;;;;;;4953909;29;20059;-60
2022/07/07 00:37:09;;;;;;;27.63;5.60;;;;;;;;;;4955028;29;20086;-61
2022/07/07 00:39:36;;;;;;;31.63;5.78;;;;;;;;;;4953338;29;20114;-60
2022/07/07 00:42:03;;;;;;;25.80;5.22;;;;;;;;;;4954975;29;20035;-60
2022/07/07 00:44:30;;;;;;;23.83;5.63;;;;;;;;;;4953309;29;20049;-60
2022/07/07 00:46:58;;;;;;;27.45;5.32;;;;;;;;;;4954129;29;20059;-60
2022/07/07 00:49:25;;;;;;;29.30;6.03;;;;;;;;;;4953997;29;20102;-60
2022/07/07 00:51:52;;;;;;;29.60;5.60;;;;;;;;;;4952603;29;20031;-62
2022/07/07 00:54:20;;;;;;;25.52;4.93;;;;;;;;;;4953106;29;20027;-60
2022/07/07 00:56:47;;;;;;;26.92;4.72;;;;;;;;;;4949157;29;20035;-63
2022/07/07 00:59:15;;;;;;;27.38;4.53;;;;;;;;;;4952631;29;20065;-62
2022/07/07 01:01:43;;;;;;;32.28;4.95;;;;;;;;;;4953709;29;20023;-63
2022/07/07 01:04:14;;;;;;;32.10;5.35;;;;;;;;;;4951936;29;20027;-62
2022/07/07 01:06:41;;;;;;;31.30;4.63;;;;;;;;;;4951920;29;20038;-58
2022/07/07 01:09:08;;;;;;;27.08;4.70;;;;;;;;;;4952352;29;20147;-62
2022/07/07 01:11:45;;;;;;;20.92;4.05;;;;;;;;;;4952768;29;20817;-60
2022/07/07 01:14:13;;;;;;;28.70;4.50;;;;;;;;;;4950366;29;20107;-59
2022/07/07 01:16:40;;;;;;;22.38;4.10;;;;;;;;;;4952079;28;20035;-60
2022/07/07 01:19:07;;;;;;;27.13;4.47;;;;;;;;;;4949942;28;20042;-60
2022/07/07 01:21:37;;;;;;;30.17;3.70;;;;;;;;;;4952934;28;20118;-62
2022/07/07 01:24:04;;;;;;;23.45;3.85;;;;;;;;;;4951531;28;20043;-61
2022/07/07 01:26:31;;;;;;;23.60;4.15;;;;;;;;;;4951302;28;20543;-62
2022/07/07 01:28:59;;;;;;;22.75;3.88;;;;;;;;;;4952855;28;20023;-60
2022/07/07 01:31:26;;;;;;;26.05;4.18;;;;;;;;;;4951643;29;20517;-60
2022/07/07 01:33:53;;;;;;;20.98;3.85;;;;;;;;;;4934360;29;20462;-59
2022/07/07 01:36:20;;;;;;;21.30;4.10;;;;;;;;;;4932840;29;20533;-62
2022/07/07 01:38:47;;;;;;;19.27;4.18;;;;;;;;;;4933652;29;20548;-64
2022/07/07 01:41:14;;;;;;;22.85;3.63;;;;;;;;;;4933246;29;20102;-62
2022/07/07 01:43:41;;;;;;;22.10;3.80;;;;;;;;;;4932600;29;20032;-62
2022/07/07 01:46:08;;;;;;;22.92;3.95;;;;;;;;;;4933729;29;20394;-62
2022/07/07 01:48:35;;;;;;;22.75;3.63;;;;;;;;;;4932296;29;20063;-60
2022/07/07 01:51:02;;;;;;;18.65;3.35;;;;;;;;;;4933434;29;20032;-61
2022/07/07 01:53:29;;;;;;;24.00;3.70;;;;;;;;;;4933031;29;20047;-60
2022/07/07 01:55:56;;;;;;;16.85;3.25;;;;;;;;;;4933403;29;20394;-60
2022/07/07 01:58:23;;;;;;;19.50;3.30;;;;;;;;;;4932980;29;20089;-60
2022/07/07 02:00:50;;;;;;;17.55;3.38;;;;;;;;;;4932842;29;20709;-60
2022/07/07 02:03:17;;;;;;;18.42;3.28;;;;;;;;;;4933596;29;20104;-59
2022/07/07 02:05:44;;;;;;;18.70;3.88;;;;;;;;;;4932902;29;20059;-60
2022/07/07 02:08:11;;;;;;;23.77;3.50;;;;;;;;;;4932913;29;20043;-60
2022/07/07 02:13:23;;;;;;;22.67;4.00;;;;;;;;;;4971453;28;20055;-60
2022/07/07 02:15:50;;;;;;;23.67;3.28;;;;;;;;;;4970598;28;20054;-60
2022/07/07 02:18:17;;;;;;;22.70;3.50;;;;;;;;;;4960660;28;20039;-60
2022/07/07 02:20:44;;;;;;;26.88;3.72;;;;;;;;;;4959229;28;20047;-62
2022/07/07 02:23:12;;;;;;;20.67;3.30;;;;;;;;;;4964521;28;20027;-63
2022/07/07 02:25:39;;;;;;;18.77;3.25;;;;;;;;;;4960962;28;20042;-64
2022/07/07 02:28:05;;;;;;;15.65;2.70;;;;;;;;;;4960679;28;20035;-60
2022/07/07 02:30:32;;;;;;;19.73;3.25;;;;;;;;;;4961845;28;20059;-60
2022/07/07 02:32:59;;;;;;;17.48;3.25;;;;;;;;;;4962601;28;20039;-60
2022/07/07 02:35:26;;;;;;;18.30;2.70;;;;;;;;;;4960536;28;20035;-62
2022/07/07 02:37:54;;;;;;;25.20;3.03;;;;;;;;;;4959788;28;20039;-65
2022/07/07 02:40:22;;;;;;;20.27;2.90;;;;;;;;;;4966676;28;20031;-63
2022/07/07 02:42:49;;;;;;;22.10;2.85;;;;;;;;;;4968448;28;20093;-60
2022/07/07 02:45:16;;;;;;;20.05;3.60;;;;;;;;;;4966607;28;20041;-63
2022/07/07 02:47:43;;;;;;;18.50;3.22;;;;;;;;;;4968397;28;20047;-63
2022/07/07 02:50:10;;;;;;;18.95;2.47;;;;;;;;;;4964178;28;20027;-60
2022/07/07 02:52:37;;;;;;;11.23;2.53;;;;;;;;;;4969553;28;20033;-63
2022/07/07 02:55:04;;;;;;;23.90;2.85;;;;;;;;;;4968088;28;20035;-60
2022/07/07 02:57:31;;;;;;;23.23;2.92;;;;;;;;;;4966947;28;20073;-62
2022/07/07 02:59:58;;;;;;;19.25;2.22;;;;;;;;;;4960362;28;20035;-60
2022/07/07 03:02:25;;;;;;;21.75;3.00;;;;;;;;;;4953421;28;20110;-62
2022/07/07 03:04:52;;;;;;;20.05;2.22;;;;;;;;;;4956207;28;20031;-62
2022/07/07 03:07:19;;;;;;;11.65;2.00;;;;;;;;;;4955859;28;20086;-60
2022/07/07 03:09:46;;;;;;;18.23;2.20;;;;;;;;;;4956056;28;20454;-63
2022/07/07 03:12:13;;;;;;;13.18;2.38;;;;;;;;;;4955886;28;20031;-63
2022/07/07 03:14:40;;;;;;;18.50;2.10;;;;;;;;;;4956110;28;20023;-63
2022/07/07 03:17:07;;;;;;;13.45;1.98;;;;;;;;;;4953780;28;20034;-60
2022/07/07 03:19:34;;;;;;;11.63;2.22;;;;;;;;;;4937538;29;20061;-60
2022/07/07 03:22:04;;;;;;;13.40;2.05;;;;;;;;;;4955971;29;20035;-63
2022/07/07 03:24:31;;;;;;;12.18;2.00;;;;;;;;;;4952582;29;20067;-63
2022/07/07 03:26:59;;;;;;;8.95;1.63;;;;;;;;;;4956190;28;20466;-60
2022/07/07 03:29:26;;;;;;;9.75;1.63;;;;;;;;;;4958209;28;20401;-60
2022/07/07 03:31:53;;;;;;;9.40;1.45;;;;;;;;;;4960209;28;20106;-63
2022/07/07 03:34:20;;;;;;;11.75;1.45;;;;;;;;;;4965813;28;20118;-60
2022/07/07 03:36:47;;;;;;;13.88;1.90;;;;;;;;;;4961240;28;20401;-63
2022/07/07 03:39:14;;;;;;;12.52;1.85;;;;;;;;;;4948011;28;20449;-60
2022/07/07 03:41:41;;;;;;;12.77;1.60;;;;;;;;;;4966088;28;20061;-60
2022/07/07 03:44:08;;;;;;;11.60;1.60;;;;;;;;;;4964369;28;20118;-64
2022/07/07 03:46:35;;;;;;;10.55;1.55;;;;;;;;;;4964230;28;20042;-60
2022/07/07 03:49:03;;;;;;;7.20;1.45;;;;;;;;;;4965921;28;20130;-60
2022/07/07 03:51:30;;;;;;;11.35;1.80;;;;;;;;;;4965074;28;20098;-60
2022/07/07 03:53:57;;;;;;;7.55;1.30;;;;;;;;;;4964472;28;20027;-63
2022/07/07 03:56:24;;;;;;;7.03;1.15;;;;;;;;;;4965669;28;20397;-60
2022/07/07 03:58:51;;;;;;;11.57;1.55;;;;;;;;;;4965254;28;20441;-63
2022/07/07 04:01:17;;;;;;;8.45;1.80;;;;;;;;;;4946404;28;20385;-63
2022/07/07 04:03:44;;;;;;;13.88;1.73;;;;;;;;;;4966117;28;20061;-60
2022/07/07 04:06:11;;;;;;;14.70;1.38;;;;;;;;;;4964390;28;20027;-60
2022/07/07 04:08:39;;;;;;;15.68;1.85;;;;;;;;;;4956589;28;20027;-63
2022/07/07 04:11:06;;;;;;;9.55;1.30;;;;;;;;;;4955777;29;20595;-63
2022/07/07 04:13:33;;;;;;;14.00;1.48;;;;;;;;;;4956045;29;20317;-63
2022/07/07 04:16:00;;;;;;;14.55;1.73;;;;;;;;;;4955542;29;20059;-63
2022/07/07 04:18:27;;;;;;;12.80;1.60;;;;;;;;;;4955109;29;20031;-63
2022/07/07 04:20:54;;;;;;;8.77;1.33;;;;;;;;;;4955821;29;20031;-63
2022/07/07 04:23:21;;;;;;;9.70;1.13;;;;;;;;;;4955205;29;20027;-63
2022/07/07 04:25:48;;;;;;;14.00;1.58;;;;;;;;;;4955578;29;20038;-63
2022/07/07 04:28:15;;;;;;;8.50;1.20;;;;;;;;;;4955123;29;20111;-63
2022/07/07 04:30:42;;;;;;;8.88;1.13;;;;;;;;;;4955651;28;20046;-63
2022/07/07 04:33:09;;;;;;;8.82;1.30;;;;;;;;;;4954675;29;20035;-63
2022/07/07 04:35:36;;;;;;;7.00;0.95;;;;;;;;;;4955220;29;20106;-63
2022/07/07 04:38:03;;;;;;;6.47;0.95;;;;;;;;;;4954847;29;20425;-63
2022/07/07 04:40:30;;;;;;;7.30;1.30;;;;;;;;;;4955531;29;20031;-63
2022/07/07 04:42:57;;;;;;;13.38;1.35;;;;;;;;;;4938235;29;20512;-63
2022/07/07 04:45:24;;;;;;;6.25;1.00;;;;;;;;;;4954659;29;20034;-63
2022/07/07 04:47:51;;;;;;;5.28;1.15;;;;;;;;;;4954288;29;20051;-63
2022/07/07 04:50:18;;;;;;;5.72;0.88;;;;;;;;;;4955290;29;20039;-63
2022/07/07 04:52:45;;;;;;;13.35;1.17;;;;;;;;;;4954550;29;20027;-63
2022/07/07 04:55:12;;;;;;;12.45;1.20;;;;;;;;;;4954459;29;20027;-63
2022/07/07 04:57:39;;;;;;;4.78;0.90;;;;;;;;;;4955025;29;20042;-63
2022/07/07 05:00:06;;;;;;;6.82;0.90;;;;;;;;;;4954905;29;20031;-62
2022/07/07 05:02:33;;;;;;;7.80;1.13;;;;;;;;;;4954324;29;20031;-63
2022/07/07 05:05:00;;;;;;;4.18;0.80;;;;;;;;;;4955080;29;20035;-63
2022/07/07 05:07:27;;;;;;;7.78;1.25;;;;;;;;;;4954373;29;20031;-62
2022/07/07 05:09:54;;;;;;;3.97;0.80;;;;;;;;;;4954925;29;20055;-63
2022/07/07 05:12:21;;;;;;;6.47;1.27;;;;;;;;;;4954124;29;20034;-63
2022/07/07 05:14:48;;;;;;;5.07;0.95;;;;;;;;;;4954906;29;20046;-63
2022/07/07 05:17:15;;;;;;;4.65;1.00;;;;;;;;;;4954361;29;20039;-63
2022/07/07 05:19:42;;;;;;;7.32;1.00;;;;;;;;;;4954451;29;20035;-63
2022/07/07 05:22:09;;;;;;;4.32;0.50;;;;;;;;;;4953974;29;20393;-63
2022/07/07 05:24:36;;;;;;;5.80;0.65;;;;;;;;;;4953990;29;20043;-62
2022/07/07 05:27:03;;;;;;;5.35;0.60;;;;;;;;;;4954279;29;20042;-63
2022/07/07 05:29:30;;;;;;;2.63;0.55;;;;;;;;;;4954534;29;20082;-63
2022/07/07 05:31:57;;;;;;;2.90;0.75;;;;;;;;;;4953779;29;20032;-63
2022/07/07 05:34:24;;;;;;;5.32;0.90;;;;;;;;;;4954553;29;20047;-63
2022/07/07 05:36:51;;;;;;;4.95;0.63;;;;;;;;;;4953756;29;20035;-63
2022/07/07 05:39:18;;;;;;;4.55;0.75;;;;;;;;;;4954521;29;20418;-63
2022/07/07 05:41:45;;;;;;;2.40;0.60;;;;;;;;;;4936627;29;20049;-63
2022/07/07 05:44:12;;;;;;;3.25;0.47;;;;;;;;;;4953812;29;20050;-63
2022/07/07 05:46:39;;;;;;;3.38;0.50;;;;;;;;;;4936387;29;20059;-62
2022/07/07 05:49:06;;;;;;;4.05;0.70;;;;;;;;;;4953643;29;20050;-62
2022/07/07 05:51:33;;;;;;;5.97;0.55;;;;;;;;;;4954462;29;20063;-62
2022/07/07 05:53:59;;;;;;;6.20;0.98;;;;;;;;;;4953415;29;20455;-62
2022/07/07 05:56:26;;;;;;;6.75;0.95;;;;;;;;;;4954091;29;20039;-62
2022/07/07 05:58:53;;;;;;;10.93;0.93;;;;;;;;;;4953729;29;20050;-62
2022/07/07 06:01:20;;;;;;;6.28;1.02;;;;;;;;;;4954100;29;20385;-63
2022/07/07 06:03:47;;;;;;;12.75;0.90;;;;;;;;;;4954176;29;20622;-64
2022/07/07 06:06:14;;;;;;;5.82;0.98;;;;;;;;;;4953815;29;20406;-62
2022/07/07 06:08:41;;;;;;;5.53;0.85;;;;;;;;;;4953678;29;20562;-62
2022/07/07 06:11:08;;;;;;;8.82;1.00;;;;;;;;;;4953626;29;20054;-63
2022/07/07 06:13:35;;;;;;;8.38;0.80;;;;;;;;;;4954012;29;20035;-62
2022/07/07 06:16:02;;;;;;;5.13;0.80;;;;;;;;;;4953778;29;20027;-62
2022/07/07 06:18:29;;;;;;;6.82;0.70;;;;;;;;;;4953262;29;20063;-62
2022/07/07 06:20:56;;;;;;;4.72;0.70;;;;;;;;;;4954255;29;20042;-62
2022/07/07 06:23:23;;;;;;;7.72;0.90;;;;;;;;;;4953501;29;20078;-63
2022/07/07 06:25:50;;;;;;;4.13;0.98;;;;;;;;;;4953791;29;20070;-62
2022/07/07 06:28:17;;;;;;;5.90;1.05;;;;;;;;;;4953921;29;20032;-62
2022/07/07 06:30:44;;;;;;;4.88;0.80;;;;;;;;;;4953370;29;20031;-63
2022/07/07 06:33:11;;;;;;;5.30;0.65;;;;;;;;;;4954152;29;20059;-62
2022/07/07 06:35:38;;;;;;;8.38;0.85;;;;;;;;;;4952946;29;20089;-63
2022/07/07 06:38:04;;;;;;;5.40;0.70;;;;;;;;;;4953407;29;20110;-63
2022/07/07 06:40:32;;;;;;;2.88;0.52;;;;;;;;;;4953650;29;20035;-63
2022/07/07 06:42:59;;;;;;;7.18;0.68;;;;;;;;;;4953287;29;20477;-62
2022/07/07 06:45:29;;;;;;;3.20;0.60;;;;;;;;;;4953497;29;20027;-63
2022/07/07 06:47:56;;;;;;;5.97;0.77;;;;;;;;;;4952776;29;20051;-63
2022/07/07 06:50:23;;;;;;;1.73;0.50;;;;;;;;;;4954041;29;20036;-62
2022/07/07 06:52:50;;;;;;;3.60;0.60;;;;;;;;;;4952948;28;20074;-63
2022/07/07 06:55:17;;;;;;;3.28;0.50;;;;;;;;;;4956647;29;20027;-63
2022/07/07 06:57:44;;;;;;;1.67;0.50;;;;;;;;;;4956757;29;20110;-62
2022/07/07 07:00:11;;;;;;;2.83;0.63;;;;;;;;;;4957155;29;20565;-62
2022/07/07 07:02:45;;;;;;;2.35;0.47;;;;;;;;;;4956867;29;20154;-63
2022/07/07 07:05:12;;;;;;;5.88;0.63;;;;;;;;;;4957319;29;20031;-62
2022/07/07 07:07:39;;;;;;;6.50;0.82;;;;;;;;;;4939068;29;20481;-62
2022/07/07 07:10:07;;;;;;;5.05;0.60;;;;;;;;;;4957344;29;20050;-62
2022/07/07 07:12:33;;;;;;;4.38;0.50;;;;;;;;;;4956819;29;20102;-62
2022/07/07 07:15:01;;;;;;;2.65;0.40;;;;;;;;;;4956789;29;20019;-63
2022/07/07 07:17:28;;;;;;;6.57;0.60;;;;;;;;;;4956321;29;20030;-62
2022/07/07 07:19:54;;;;;;;2.83;0.50;;;;;;;;;;4956961;29;20093;-63
2022/07/07 07:22:21;;;;;;;3.35;0.63;;;;;;;;;;4956879;29;20038;-63
2022/07/07 07:24:48;;;;;;;2.65;0.60;;;;;;;;;;4956402;29;20031;-63
2022/07/07 07:27:15;;;;;;;3.13;0.43;;;;;;;;;;4956120;29;20030;-63
2022/07/07 07:29:42;;;;;;;2.20;0.40;;;;;;;;;;4956678;29;20035;-62
2022/07/07 07:32:09;;;;;;;2.30;0.60;;;;;;;;;;4956675;29;20494;-62
2022/07/07 07:34:36;;;;;;;1.52;0.38;;;;;;;;;;4956087;29;20033;-62
2022/07/07 07:37:03;;;;;;;2.35;0.50;;;;;;;;;;4956668;29;20031;-62
2022/07/07 07:39:30;;;;;;;0.73;0.30;;;;;;;;;;4956246;29;20037;-62
2022/07/07 07:41:57;;;;;;;3.40;0.43;;;;;;;;;;4956579;29;20078;-63
2022/07/07 07:47:09;;;;;;;0.70;0.30;;;;;;;;;;4956192;29;20041;-62
2022/07/07 07:49:36;;;;;;;4.68;0.50;;;;;;;;;;4955899;29;20133;-63
2022/07/07 07:52:03;;;;;;;2.00;0.47;;;;;;;;;;4956417;29;20032;-62
2022/07/07 07:54:30;;;;;;;1.38;0.52;;;;;;;;;;4955673;29;20027;-62
2022/07/07 07:56:57;;;;;;;1.98;0.50;;;;;;;;;;4956089;29;20038;-63
2022/07/07 07:59:24;;;;;;;2.00;0.40;;;;;;;;;;4955557;29;20050;-62
2022/07/07 08:01:51;;;;;;;1.65;0.30;;;;;;;;;;4956115;29;20481;-63
2022/07/07 08:04:18;;;;;;;2.38;0.50;;;;;;;;;;4955134;28;20649;-62
2022/07/07 08:06:45;;;;;;;0.40;0.30;;;;;;;;;;4955984;29;20090;-62
2022/07/07 08:09:12;;;;;;;1.02;0.30;;;;;;;;;;4955760;29;20034;-62
2022/07/07 08:11:39;;;;;;;1.58;0.40;;;;;;;;;;4956282;29;20059;-63
2022/07/07 08:14:06;;;;;;;2.00;0.40;;;;;;;;;;4955267;29;20027;-63
2022/07/07 08:16:35;;;;;;;2.40;0.30;;;;;;;;;;4955690;29;20110;-62
2022/07/07 08:19:02;;;;;;;0.65;0.32;;;;;;;;;;4955438;29;20043;-63
2022/07/07 08:21:29;;;;;;;2.45;0.30;;;;;;;;;;4950232;29;20032;-63
2022/07/07 08:27:06;;;;;;;2.53;0.38;;;;;;;;;;4936814;29;20094;-59
2022/07/07 08:29:37;;;;;;;0.82;0.35;;;;;;;;;;4936066;29;20058;-60
2022/07/07 08:32:06;;;;;;;0.53;0.20;;;;;;;;;;4935899;29;20083;-63
2022/07/07 08:34:33;;;;;;;2.97;0.55;;;;;;;;;;4936081;29;20123;-60
2022/07/07 08:37:00;;;;;;;2.17;0.40;;;;;;;;;;4935434;29;20024;-60
2022/07/07 08:39:27;;;;;;;1.60;0.30;;;;;;;;;;4935594;29;20118;-60
2022/07/07 08:41:54;;;;;;;3.38;0.32;;;;;;;;;;4935779;29;20036;-60
2022/07/07 08:44:21;;;;;;;4.15;0.50;;;;;;;;;;4935780;29;20028;-60
2022/07/07 08:46:48;;;;;;;0.85;0.40;;;;;;;;;;4935366;29;20083;-60
2022/07/07 08:49:15;;;;;;;1.65;0.40;;;;;;;;;;4935827;29;20134;-60
2022/07/07 08:51:43;;;;;;;0.40;0.30;;;;;;;;;;4935600;29;20078;-60
2022/07/07 08:54:10;;;;;;;2.05;0.30;;;;;;;;;;4935451;29;20055;-60
2022/07/07 08:56:41;;;;;;;1.85;0.20;;;;;;;;;;4935727;29;20443;-60
2022/07/07 08:59:08;;;;;;;0.77;0.40;;;;;;;;;;4934611;29;20126;-60
2022/07/07 09:01:36;;;;;;;1.00;0.30;;;;;;;;;;4935691;29;20058;-60
2022/07/07 09:04:04;;;;;;;1.02;0.40;;;;;;;;;;4934687;29;20035;-60
2022/07/07 09:06:31;;;;;;;2.03;0.30;;;;;;;;;;4935677;29;20655;-60
2022/07/07 09:08:59;;;;;;;1.20;0.30;;;;;;;;;;4918103;29;20060;-60
2022/07/07 09:11:29;;;;;;;1.60;0.50;;;;;;;;;;4935184;29;20035;-60
2022/07/07 09:14:09;;;;;;;1.98;0.55;;;;;;;;;;4934671;29;20402;-60
2022/07/07 09:16:37;;;;;;;3.95;0.30;;;;;;;;;;4934918;29;20430;-60
2022/07/07 09:19:06;;;;;;;1.88;0.40;;;;;;;;;;4934532;29;20028;-60
2022/07/07 09:21:34;;;;;;;5.30;0.52;;;;;;;;;;4935475;29;20038;-60
2022/07/07 09:24:02;;;;;;;1.58;0.40;;;;;;;;;;4935285;29;20039;-60
2022/07/07 09:26:38;;;;;;;2.38;0.40;;;;;;;;;;4934514;29;20038;-60
2022/07/07 09:29:17;;;;;;;2.05;0.40;;;;;;;;;;4935403;29;20039;-60
2022/07/07 09:31:54;;;;;;;2.80;0.50;;;;;;;;;;4934344;29;20102;-60
2022/07/07 09:34:25;;;;;;;2.33;0.47;;;;;;;;;;4935221;29;20038;-60
2022/07/07 09:39:41;;;;;;;2.50;0.60;;;;;;;;;;4934273;29;20042;-60
2022/07/07 09:42:41;;;;;;;3.95;0.50;;;;;;;;;;4935200;29;20038;-60
2022/07/07 09:45:09;;;;;;;4.05;0.50;;;;;;;;;;4892440;29;20446;-60
2022/07/07 09:47:37;;;;;;;4.07;0.60;;;;;;;;;;4934928;29;20126;-59
2022/07/07 09:50:08;;;;;;;3.92;0.60;;;;;;;;;;4934487;29;20103;-60
2022/07/07 09:52:39;;;;;;;3.15;0.50;;;;;;;;;;4935118;29;20103;-60
2022/07/07 09:55:08;;;;;;;6.70;1.05;;;;;;;;;;4934498;29;20031;-60
2022/07/07 09:57:35;;;;;;;4.40;0.70;;;;;;;;;;4934709;29;20438;-60
2022/07/07 10:00:03;;;;;;;5.65;0.80;;;;;;;;;;4934160;29;20035;-60
2022/07/07 10:02:30;;;;;;;2.15;0.40;;;;;;;;;;4935013;29;20482;-60
2022/07/07 10:04:59;;;;;;;3.83;0.52;;;;;;;;;;4934234;29;20066;-60
2022/07/07 10:07:29;;;;;;;5.40;0.55;;;;;;;;;;4934779;29;20032;-60
2022/07/07 10:10:06;;;;;;;2.40;0.60;;;;;;;;;;4934394;29;20042;-60
2022/07/07 10:12:33;;;;;;;1.55;0.40;;;;;;;;;;4934912;29;20028;-60
2022/07/07 10:15:13;;;;;;;3.33;0.70;;;;;;;;;;4933711;29;20024;-60
2022/07/07 10:17:41;;;;;;;2.92;0.40;;;;;;;;;;4934770;29;20039;-60
2022/07/07 10:20:09;;;;;;;2.45;0.50;;;;;;;;;;4934039;29;20028;-60
2022/07/07 10:22:36;;;;;;;5.20;0.65;;;;;;;;;;4933834;29;20114;-60
2022/07/07 10:25:06;;;;;;;4.45;0.50;;;;;;;;;;4933973;29;20039;-60
2022/07/07 10:27:33;;;;;;;1.77;0.40;;;;;;;;;;4935114;29;20031;-60
2022/07/07 10:30:01;;;;;;;4.43;0.60;;;;;;;;;;4937787;29;20059;-60
2022/07/07 10:32:33;;;;;;;4.28;0.80;;;;;;;;;;4940472;29;20045;-62
2022/07/07 10:35:06;;;;;;;5.57;0.60;;;;;;;;;;4934635;29;20034;-61
2022/07/07 10:37:42;;;;;;;5.00;0.70;;;;;;;;;;4932395;29;20036;-60
2022/07/07 10:40:14;;;;;;;3.72;0.70;;;;;;;;;;4932882;29;21360;-62
2022/07/07 10:43:01;;;;;;;12.13;0.90;;;;;;;;;;4919766;29;20068;-60
2022/07/07 10:45:28;;;;;;;6.93;0.80;;;;;;;;;;4890018;29;20040;-62
2022/07/07 10:47:56;;;;;;;5.88;0.88;;;;;;;;;;4928424;29;20095;-62
2022/07/07 10:50:26;;;;;;;5.35;0.75;;;;;;;;;;4937180;29;20031;-60
2022/07/07 10:52:54;;;;;;;6.57;0.70;;;;;;;;;;4935943;29;20027;-64
2022/07/07 10:55:21;;;;;;;11.85;1.27;;;;;;;;;;4936322;29;20035;-60
2022/07/07 10:57:48;;;;;;;13.02;1.00;;;;;;;;;;4937413;29;20036;-60
2022/07/07 11:00:15;;;;;;;11.02;1.10;;;;;;;;;;4932960;29;20494;-63
2022/07/07 11:02:47;;;;;;;6.75;0.90;;;;;;;;;;4918872;29;20839;-60
2022/07/07 11:05:16;;;;;;;7.28;1.00;;;;;;;;;;4927866;29;20544;-60
2022/07/07 11:07:59;;;;;;;8.80;1.17;;;;;;;;;;4916619;29;20866;-62
2022/07/07 11:10:38;;;;;;;9.02;1.00;;;;;;;;;;4917567;29;20032;-60
2022/07/07 11:13:25;;;;;;;7.28;1.00;;;;;;;;;;4921078;29;20040;-62
2022/07/07 11:15:53;;;;;;;7.38;1.10;;;;;;;;;;4925147;29;20044;-60
2022/07/07 11:18:20;;;;;;;6.95;1.10;;;;;;;;;;4931776;29;20035;-62
2022/07/07 11:20:58;;;;;;;6.88;1.00;;;;;;;;;;4919141;29;20059;-63
2022/07/07 11:23:29;;;;;;;7.22;0.98;;;;;;;;;;4936724;29;20027;-62
2022/07/07 11:25:57;;;;;;;7.70;1.00;;;;;;;;;;4937500;29;20023;-63
2022/07/07 11:28:25;;;;;;;5.82;0.90;;;;;;;;;;4936627;29;20071;-63
2022/07/07 11:31:01;;;;;;;8.63;1.40;;;;;;;;;;4937314;29;20035;-63
2022/07/07 11:33:28;;;;;;;7.20;1.00;;;;;;;;;;4942079;29;20023;-60
2022/07/07 11:35:55;;;;;;;7.22;0.98;;;;;;;;;;4953083;29;20039;-60
2022/07/07 11:38:26;;;;;;;8.65;1.00;;;;;;;;;;4955814;29;20724;-60
2022/07/07 11:40:53;;;;;;;8.65;1.10;;;;;;;;;;4955590;28;20062;-61
2022/07/07 11:43:21;;;;;;;4.93;0.77;;;;;;;;;;4955346;29;20062;-60
2022/07/07 11:45:48;;;;;;;4.40;0.90;;;;;;;;;;4955543;29;20023;-60
2022/07/07 11:48:15;;;;;;;5.70;0.73;;;;;;;;;;4955737;29;20466;-60
2022/07/07 11:50:43;;;;;;;4.60;0.95;;;;;;;;;;4955087;29;20074;-60
2022/07/07 11:53:11;;;;;;;4.30;0.90;;;;;;;;;;4956165;29;20035;-61
2022/07/07 11:55:38;;;;;;;7.53;1.00;;;;;;;;;;4955139;29;20115;-60
2022/07/07 11:58:06;;;;;;;9.73;1.00;;;;;;;;;;4956008;29;20106;-60
2022/07/07 12:00:34;;;;;;;5.30;0.85;;;;;;;;;;4954921;29;20434;-60
2022/07/07 12:03:02;;;;;;;6.10;1.10;;;;;;;;;;4955516;29;20055;-61
2022/07/07 12:05:37;;;;;;;5.93;0.98;;;;;;;;;;4939993;29;20036;-61
2022/07/07 12:08:07;;;;;;;4.65;0.95;;;;;;;;;;4939372;29;20060;-61
2022/07/07 12:10:42;;;;;;;6.57;1.10;;;;;;;;;;4943981;29;20036;-62
2022/07/07 12:13:10;;;;;;;3.95;0.90;;;;;;;;;;4942286;29;20031;-61
2022/07/07 12:15:41;;;;;;;4.32;1.10;;;;;;;;;;4952455;29;20039;-62
2022/07/07 12:18:09;;;;;;;7.03;0.90;;;;;;;;;;4955164;29;20058;-61
2022/07/07 12:20:37;;;;;;;8.73;2.10;;;;;;;;;;4954765;29;20062;-60
2022/07/07 12:23:05;;;;;;;3.80;1.10;;;;;;;;;;4936353;29;20048;-60
2022/07/07 12:25:33;;;;;;;3.75;0.93;;;;;;;;;;4916780;29;20024;-61
2022/07/07 12:28:00;;;;;;;5.13;1.08;;;;;;;;;;4916409;29;20525;-61
2022/07/07 12:30:28;;;;;;;6.80;1.17;;;;;;;;;;4916316;29;20047;-60
2022/07/07 12:32:56;;;;;;;5.30;0.98;;;;;;;;;;4915985;29;20511;-61
2022/07/07 12:35:30;;;;;;;5.47;0.85;;;;;;;;;;4916219;29;20036;-59
2022/07/07 12:38:01;;;;;;;5.07;0.70;;;;;;;;;;4916419;29;20032;-59
2022/07/07 12:40:29;;;;;;;5.03;0.90;;;;;;;;;;4916685;29;20036;-59
2022/07/07 12:42:56;;;;;;;4.63;0.80;;;;;;;;;;4915991;29;20059;-58
2022/07/07 12:45:24;;;;;;;3.92;0.90;;;;;;;;;;4916616;29;20056;-59
2022/07/07 12:47:55;;;;;;;4.57;1.13;;;;;;;;;;4916125;29;20052;-59
2022/07/07 12:50:23;;;;;;;4.33;1.00;;;;;;;;;;4916603;29;20783;-62
2022/07/07 12:52:57;;;;;;;3.70;0.85;;;;;;;;;;4923347;29;20550;-62
2022/07/07 12:55:32;;;;;;;7.40;1.20;;;;;;;;;;4921814;29;20032;-59
2022/07/07 12:58:02;;;;;;;3.80;1.00;;;;;;;;;;4919357;29;20027;-58
2022/07/07 13:00:29;;;;;;;1.88;0.70;;;;;;;;;;4927978;29;20043;-59
2022/07/07 13:02:56;;;;;;;3.15;0.95;;;;;;;;;;4930752;29;20043;-60
2022/07/07 13:05:23;;;;;;;5.90;0.80;;;;;;;;;;4932769;29;20090;-58
2022/07/07 13:07:50;;;;;;;7.07;1.10;;;;;;;;;;4924546;29;20032;-63
2022/07/07 13:10:17;;;;;;;4.60;0.80;;;;;;;;;;4909142;29;20031;-60
2022/07/07 13:12:47;;;;;;;7.30;1.15;;;;;;;;;;4929132;29;20114;-59
2022/07/07 13:15:14;;;;;;;6.90;1.17;;;;;;;;;;4923309;29;20748;-60
2022/07/07 13:17:43;;;;;;;6.88;0.80;;;;;;;;;;4923543;29;20506;-60
2022/07/07 13:20:12;;;;;;;3.30;0.73;;;;;;;;;;4933062;29;20035;-59
2022/07/07 13:22:42;;;;;;;4.45;1.02;;;;;;;;;;4921716;29;20034;-59
2022/07/07 13:25:09;;;;;;;5.32;0.70;;;;;;;;;;4921920;29;20075;-58
2022/07/07 13:27:36;;;;;;;2.75;0.95;;;;;;;;;;4928174;29;20027;-59
2022/07/07 13:30:03;;;;;;;3.72;0.82;;;;;;;;;;4929049;29;20048;-59
2022/07/07 13:32:30;;;;;;;3.72;0.90;;;;;;;;;;4928171;29;20062;-60
2022/07/07 13:34:57;;;;;;;5.57;0.85;;;;;;;;;;4933836;29;20106;-61
2022/07/07 13:37:24;;;;;;;8.02;1.13;;;;;;;;;;4924414;29;20027;-58
2022/07/07 13:39:51;;;;;;;6.93;1.23;;;;;;;;;;4930686;29;20040;-60
2022/07/07 13:42:18;;;;;;;8.60;1.48;;;;;;;;;;4931256;29;20020;-59
2022/07/07 13:44:45;;;;;;;8.68;2.10;;;;;;;;;;4927912;29;20023;-59
2022/07/07 13:47:15;;;;;;;6.43;1.77;;;;;;;;;;4926096;29;20119;-60
2022/07/07 13:49:42;;;;;;;7.95;2.20;;;;;;;;;;4929916;29;20028;-60
2022/07/07 13:52:10;;;;;;;11.02;2.28;;;;;;;;;;4928657;29;20438;-58
2022/07/07 13:54:37;;;;;;;9.77;2.03;;;;;;;;;;4927291;29;20454;-59
2022/07/07 13:57:05;;;;;;;8.90;1.85;;;;;;;;;;4923019;29;20482;-60
2022/07/07 13:59:32;;;;;;;14.55;2.50;;;;;;;;;;4919477;29;20478;-58
2022/07/07 14:01:59;;;;;;;15.77;2.75;;;;;;;;;;4927215;29;20490;-59
2022/07/07 14:04:26;;;;;;;15.32;3.13;;;;;;;;;;4924452;29;20137;-60
2022/07/07 14:06:53;;;;;;;16.35;3.53;;;;;;;;;;4925683;29;20046;-60
2022/07/07 14:09:20;;;;;;;17.50;3.05;;;;;;;;;;4920497;29;20031;-62
2022/07/07 14:11:48;;;;;;;10.77;2.72;;;;;;;;;;4925980;29;20040;-59
2022/07/07 14:14:15;;;;;;;14.70;2.72;;;;;;;;;;4926796;29;20118;-59
2022/07/07 14:16:42;;;;;;;16.33;2.72;;;;;;;;;;4930095;29;20055;-59
2022/07/07 14:19:09;;;;;;;22.60;3.33;;;;;;;;;;4925428;29;20545;-61
2022/07/07 14:21:36;;;;;;;12.52;3.22;;;;;;;;;;4922800;29;20111;-61
2022/07/07 14:24:03;;;;;;;10.43;2.90;;;;;;;;;;4923408;29;20040;-61
2022/07/07 14:26:30;;;;;;;9.57;2.38;;;;;;;;;;4925066;29;20062;-60
2022/07/07 14:28:57;;;;;;;16.27;2.97;;;;;;;;;;4924799;29;20035;-60
2022/07/07 14:31:24;;;;;;;62.05;10.75;;;;;;;;;;4926716;29;20036;-61
2022/07/07 14:33:51;;;;;;;39.10;5.88;;;;;;;;;;4927717;29;20075;-61
2022/07/07 14:36:18;;;;;;;24.58;3.80;;;;;;;;;;4922284;29;20114;-61
2022/07/07 14:38:44;;;;;;;16.42;2.65;;;;;;;;;;4926976;29;20047;-60
2022/07/07 14:41:11;;;;;;;15.18;2.13;;;;;;;;;;4927247;29;20413;-59
2022/07/07 14:43:38;;;;;;;15.02;2.30;;;;;;;;;;4927570;29;20039;-60
2022/07/07 14:46:06;;;;;;;13.80;2.28;;;;;;;;;;4926333;29;20115;-61
2022/07/07 14:48:34;;;;;;;16.00;3.00;;;;;;;;;;4925617;29;20414;-59
2022/07/07 14:51:01;;;;;;;18.90;3.75;;;;;;;;;;4921364;29;20142;-60
2022/07/07 14:53:29;;;;;;;21.63;4.20;;;;;;;;;;4931910;29;20477;-60